sensor_id;sensor_type;location;lat;lon;timestamp;P1;durP1;ratioP1;P2;durP2;ratioP2
795;SDS011;381;48.770;9.188;2023-06-26T00:03:52;9.07;;;8.27;;
795;SDS011;381;48.770;9.188;2023-06-26T00:08:55;9.57;;;8.77;;
795;SDS011;381;48.770;9.188;2023-06-26T00:13:59;6.50;;;5.90;;
795;SDS011;381;48.770;9.188;2023-06-26T00:19:01;9.10;;;8.30;;
795;SDS011;381;48.770;9.188;2023-06-26T00:24:05;14.53;;;8.43;;
795;SDS011;381;48.770;9.188;2023-06-26T00:29:07;8.83;;;8.03;;
795;SDS011;381;48.770;9.188;2023-06-26T00:34:09;9.97;;;9.07;;
795;SDS011;381;48.770;9.188;2023-06-26T00:39:12;9.07;;;8.27;;
795;SDS011;381;48.770;9.188;2023-06-26T00:44:15;8.23;;;7.53;;
795;SDS011;381;48.770;9.188;2023-06-26T00:49:17;10.53;;;9.60;;
795;SDS011;381;48.770;9.188;2023-06-26T00:54:21;9.30;;;8.50;;
795;SDS011;381;48.770;9.188;2023-06-26T00:59:24;8.83;;;8.13;;
795;SDS011;381;48.770;9.188;2023-06-26T01:04:26;9.80;;;8.90;;
795;SDS011;381;48.770;9.188;2023-06-26T01:09:34;8.50;;;7.80;;
795;SDS011;381;48.770;9.188;2023-06-26T01:14:36;9.03;;;8.23;;
795;SDS011;381;48.770;9.188;2023-06-26T01:19:38;8.90;;;8.10;;
795;SDS011;381;48.770;9.188;2023-06-26T01:24:44;8.80;;;8.00;;
795;SDS011;381;48.770;9.188;2023-06-26T01:29:56;9.13;;;8.33;;
795;SDS011;381;48.770;9.188;2023-06-26T01:34:59;9.10;;;8.30;;
795;SDS011;381;48.770;9.188;2023-06-26T01:40:04;8.67;;;7.97;;
795;SDS011;381;48.770;9.188;2023-06-26T01:45:10;9.40;;;8.50;;
795;SDS011;381;48.770;9.188;2023-06-26T01:50:22;9.10;;;8.30;;
795;SDS011;381;48.770;9.188;2023-06-26T01:55:30;9.00;;;8.20;;
795;SDS011;381;48.770;9.188;2023-06-26T02:00:37;8.33;;;7.63;;
795;SDS011;381;48.770;9.188;2023-06-26T02:05:40;8.33;;;7.43;;
795;SDS011;381;48.770;9.188;2023-06-26T02:10:42;8.10;;;7.30;;
795;SDS011;381;48.770;9.188;2023-06-26T02:15:45;9.70;;;8.80;;
795;SDS011;381;48.770;9.188;2023-06-26T02:20:48;9.03;;;8.33;;
795;SDS011;381;48.770;9.188;2023-06-26T02:25:50;9.10;;;8.30;;
795;SDS011;381;48.770;9.188;2023-06-26T02:30:53;9.13;;;8.40;;
795;SDS011;381;48.770;9.188;2023-06-26T02:35:55;9.30;;;8.50;;
795;SDS011;381;48.770;9.188;2023-06-26T02:40:57;9.40;;;8.50;;
795;SDS011;381;48.770;9.188;2023-06-26T02:46:02;10.67;;;9.67;;
795;SDS011;381;48.770;9.188;2023-06-26T02:51:04;8.93;;;8.13;;
795;SDS011;381;48.770;9.188;2023-06-26T02:56:07;8.83;;;8.03;;
795;SDS011;381;48.770;9.188;2023-06-26T03:01:11;9.97;;;9.07;;
795;SDS011;381;48.770;9.188;2023-06-26T03:06:15;9.07;;;8.23;;
795;SDS011;381;48.770;9.188;2023-06-26T03:11:18;9.30;;;8.50;;
795;SDS011;381;48.770;9.188;2023-06-26T03:16:22;8.73;;;8.00;;
795;SDS011;381;48.770;9.188;2023-06-26T03:21:24;9.93;;;9.03;;
795;SDS011;381;48.770;9.188;2023-06-26T03:26:27;12.27;;;9.57;;
795;SDS011;381;48.770;9.188;2023-06-26T03:31:33;9.83;;;8.93;;
795;SDS011;381;48.770;9.188;2023-06-26T03:36:37;9.70;;;8.80;;
795;SDS011;381;48.770;9.188;2023-06-26T03:41:39;9.57;;;8.67;;
795;SDS011;381;48.770;9.188;2023-06-26T03:46:43;9.30;;;8.50;;
795;SDS011;381;48.770;9.188;2023-06-26T03:51:45;9.70;;;8.83;;
795;SDS011;381;48.770;9.188;2023-06-26T03:56:48;8.20;;;7.50;;
795;SDS011;381;48.770;9.188;2023-06-26T04:01:51;8.57;;;7.87;;
795;SDS011;381;48.770;9.188;2023-06-26T04:06:54;9.27;;;8.57;;
795;SDS011;381;48.770;9.188;2023-06-26T04:11:56;8.27;;;7.57;;
795;SDS011;381;48.770;9.188;2023-06-26T04:17:00;8.90;;;8.10;;
795;SDS011;381;48.770;9.188;2023-06-26T04:22:03;8.83;;;8.13;;
795;SDS011;381;48.770;9.188;2023-06-26T04:27:05;8.67;;;7.90;;
795;SDS011;381;48.770;9.188;2023-06-26T04:32:09;8.77;;;8.07;;
795;SDS011;381;48.770;9.188;2023-06-26T04:37:11;9.60;;;8.80;;
795;SDS011;381;48.770;9.188;2023-06-26T04:42:17;8.10;;;7.40;;
795;SDS011;381;48.770;9.188;2023-06-26T04:47:23;9.23;;;8.33;;
795;SDS011;381;48.770;9.188;2023-06-26T04:52:25;8.90;;;8.10;;
795;SDS011;381;48.770;9.188;2023-06-26T04:57:27;9.37;;;8.00;;
795;SDS011;381;48.770;9.188;2023-06-26T05:02:30;10.23;;;9.27;;
795;SDS011;381;48.770;9.188;2023-06-26T05:07:33;8.30;;;7.47;;
795;SDS011;381;48.770;9.188;2023-06-26T05:12:35;8.53;;;7.83;;
795;SDS011;381;48.770;9.188;2023-06-26T05:17:39;7.80;;;7.10;;
795;SDS011;381;48.770;9.188;2023-06-26T05:22:41;7.30;;;6.70;;
795;SDS011;381;48.770;9.188;2023-06-26T05:27:43;8.63;;;7.60;;
795;SDS011;381;48.770;9.188;2023-06-26T05:32:47;7.57;;;6.87;;
795;SDS011;381;48.770;9.188;2023-06-26T05:37:50;7.87;;;7.20;;
795;SDS011;381;48.770;9.188;2023-06-26T05:42:53;8.97;;;8.17;;
795;SDS011;381;48.770;9.188;2023-06-26T05:47:57;8.60;;;7.90;;
795;SDS011;381;48.770;9.188;2023-06-26T05:52:59;8.37;;;7.57;;
795;SDS011;381;48.770;9.188;2023-06-26T05:58:03;9.70;;;7.50;;
795;SDS011;381;48.770;9.188;2023-06-26T06:03:09;9.57;;;7.53;;
795;SDS011;381;48.770;9.188;2023-06-26T06:08:11;8.83;;;7.00;;
795;SDS011;381;48.770;9.188;2023-06-26T06:13:13;9.00;;;8.20;;
795;SDS011;381;48.770;9.188;2023-06-26T06:18:17;8.43;;;7.63;;
795;SDS011;381;48.770;9.188;2023-06-26T06:23:19;8.93;;;7.73;;
795;SDS011;381;48.770;9.188;2023-06-26T06:28:21;6.57;;;6.07;;
795;SDS011;381;48.770;9.188;2023-06-26T06:33:24;8.43;;;7.53;;
795;SDS011;381;48.770;9.188;2023-06-26T06:38:26;7.90;;;7.20;;
795;SDS011;381;48.770;9.188;2023-06-26T06:43:28;14.87;;;9.13;;
795;SDS011;381;48.770;9.188;2023-06-26T06:48:32;9.37;;;8.47;;
795;SDS011;381;48.770;9.188;2023-06-26T06:53:34;10.37;;;8.97;;
795;SDS011;381;48.770;9.188;2023-06-26T06:58:36;9.03;;;8.00;;
795;SDS011;381;48.770;9.188;2023-06-26T07:03:39;8.93;;;7.97;;
795;SDS011;381;48.770;9.188;2023-06-26T07:08:41;8.90;;;8.10;;
795;SDS011;381;48.770;9.188;2023-06-26T07:13:43;8.30;;;7.60;;
795;SDS011;381;48.770;9.188;2023-06-26T07:18:47;7.63;;;6.93;;
795;SDS011;381;48.770;9.188;2023-06-26T07:23:50;7.53;;;6.80;;
795;SDS011;381;48.770;9.188;2023-06-26T07:28:52;8.10;;;7.40;;
795;SDS011;381;48.770;9.188;2023-06-26T07:33:58;7.40;;;6.70;;
795;SDS011;381;48.770;9.188;2023-06-26T07:39:00;6.80;;;6.30;;
795;SDS011;381;48.770;9.188;2023-06-26T07:44:03;8.00;;;7.30;;
795;SDS011;381;48.770;9.188;2023-06-26T07:49:06;8.27;;;7.20;;
795;SDS011;381;48.770;9.188;2023-06-26T07:54:08;7.53;;;6.90;;
795;SDS011;381;48.770;9.188;2023-06-26T07:59:11;7.00;;;6.37;;
795;SDS011;381;48.770;9.188;2023-06-26T08:04:17;7.67;;;6.97;;
795;SDS011;381;48.770;9.188;2023-06-26T08:09:19;7.53;;;6.60;;
795;SDS011;381;48.770;9.188;2023-06-26T08:14:22;6.83;;;6.23;;
795;SDS011;381;48.770;9.188;2023-06-26T08:19:26;6.40;;;5.87;;
795;SDS011;381;48.770;9.188;2023-06-26T08:24:28;7.13;;;6.57;;
795;SDS011;381;48.770;9.188;2023-06-26T08:29:30;8.03;;;6.70;;
795;SDS011;381;48.770;9.188;2023-06-26T08:34:33;6.30;;;5.80;;
795;SDS011;381;48.770;9.188;2023-06-26T08:39:35;6.93;;;5.80;;
795;SDS011;381;48.770;9.188;2023-06-26T08:44:38;6.63;;;6.03;;
795;SDS011;381;48.770;9.188;2023-06-26T08:49:47;5.83;;;5.30;;
795;SDS011;381;48.770;9.188;2023-06-26T08:54:54;5.80;;;5.33;;
795;SDS011;381;48.770;9.188;2023-06-26T08:59:58;5.40;;;4.90;;
795;SDS011;381;48.770;9.188;2023-06-26T09:05:03;6.93;;;5.77;;
795;SDS011;381;48.770;9.188;2023-06-26T09:10:07;5.40;;;5.00;;
795;SDS011;381;48.770;9.188;2023-06-26T09:15:10;5.80;;;5.40;;
795;SDS011;381;48.770;9.188;2023-06-26T09:20:18;5.80;;;5.40;;
795;SDS011;381;48.770;9.188;2023-06-26T09:25:23;5.07;;;4.77;;
795;SDS011;381;48.770;9.188;2023-06-26T09:30:25;7.07;;;5.40;;
795;SDS011;381;48.770;9.188;2023-06-26T09:35:29;6.83;;;4.93;;
795;SDS011;381;48.770;9.188;2023-06-26T09:40:31;5.10;;;4.70;;
795;SDS011;381;48.770;9.188;2023-06-26T09:45:35;5.57;;;5.17;;
795;SDS011;381;48.770;9.188;2023-06-26T09:50:42;6.17;;;5.67;;
795;SDS011;381;48.770;9.188;2023-06-26T09:55:44;5.63;;;5.23;;
795;SDS011;381;48.770;9.188;2023-06-26T10:00:47;5.50;;;5.10;;
795;SDS011;381;48.770;9.188;2023-06-26T10:05:51;6.00;;;5.60;;
795;SDS011;381;48.770;9.188;2023-06-26T10:10:53;5.60;;;5.20;;
795;SDS011;381;48.770;9.188;2023-06-26T10:15:56;6.00;;;5.60;;
795;SDS011;381;48.770;9.188;2023-06-26T10:21:02;5.50;;;5.10;;
795;SDS011;381;48.770;9.188;2023-06-26T10:26:05;6.43;;;5.97;;
795;SDS011;381;48.770;9.188;2023-06-26T10:31:08;6.00;;;5.50;;
795;SDS011;381;48.770;9.188;2023-06-26T10:36:16;7.27;;;6.67;;
795;SDS011;381;48.770;9.188;2023-06-26T10:41:20;7.40;;;5.73;;
795;SDS011;381;48.770;9.188;2023-06-26T10:46:23;9.43;;;7.30;;
795;SDS011;381;48.770;9.188;2023-06-26T10:51:27;5.90;;;5.50;;
795;SDS011;381;48.770;9.188;2023-06-26T10:56:41;6.87;;;6.37;;
795;SDS011;381;48.770;9.188;2023-06-26T11:01:44;5.97;;;5.57;;
795;SDS011;381;48.770;9.188;2023-06-26T11:06:49;8.00;;;7.17;;
795;SDS011;381;48.770;9.188;2023-06-26T11:12:33;6.87;;;6.37;;
795;SDS011;381;48.770;9.188;2023-06-26T11:17:37;7.87;;;7.17;;
795;SDS011;381;48.770;9.188;2023-06-26T11:22:41;8.60;;;7.83;;
795;SDS011;381;48.770;9.188;2023-06-26T11:27:44;7.97;;;7.27;;
795;SDS011;381;48.770;9.188;2023-06-26T11:32:46;7.37;;;6.77;;
795;SDS011;381;48.770;9.188;2023-06-26T11:37:50;6.23;;;5.73;;
795;SDS011;381;48.770;9.188;2023-06-26T11:42:57;6.90;;;6.40;;
795;SDS011;381;48.770;9.188;2023-06-26T11:48:00;8.47;;;7.77;;
795;SDS011;381;48.770;9.188;2023-06-26T11:53:04;8.30;;;7.50;;
795;SDS011;381;48.770;9.188;2023-06-26T11:58:08;7.10;;;6.60;;
795;SDS011;381;48.770;9.188;2023-06-26T12:03:10;7.40;;;6.80;;
795;SDS011;381;48.770;9.188;2023-06-26T12:08:13;7.93;;;7.13;;
795;SDS011;381;48.770;9.188;2023-06-26T12:13:16;7.90;;;7.20;;
795;SDS011;381;48.770;9.188;2023-06-26T12:18:18;7.17;;;6.47;;
795;SDS011;381;48.770;9.188;2023-06-26T12:23:22;7.30;;;6.80;;
795;SDS011;381;48.770;9.188;2023-06-26T12:28:24;6.80;;;6.20;;
795;SDS011;381;48.770;9.188;2023-06-26T12:33:26;7.37;;;6.67;;
795;SDS011;381;48.770;9.188;2023-06-26T12:38:33;7.77;;;7.17;;
795;SDS011;381;48.770;9.188;2023-06-26T12:43:38;7.20;;;6.60;;
795;SDS011;381;48.770;9.188;2023-06-26T12:48:41;7.30;;;6.60;;
795;SDS011;381;48.770;9.188;2023-06-26T12:53:48;7.30;;;6.37;;
795;SDS011;381;48.770;9.188;2023-06-26T12:58:50;6.60;;;6.10;;
795;SDS011;381;48.770;9.188;2023-06-26T13:03:52;6.93;;;6.33;;
795;SDS011;381;48.770;9.188;2023-06-26T13:08:57;6.93;;;6.33;;
795;SDS011;381;48.770;9.188;2023-06-26T13:13:59;6.50;;;5.90;;
795;SDS011;381;48.770;9.188;2023-06-26T13:19:01;9.90;;;6.60;;
795;SDS011;381;48.770;9.188;2023-06-26T13:24:05;7.30;;;6.70;;
795;SDS011;381;48.770;9.188;2023-06-26T13:29:07;7.67;;;6.93;;
795;SDS011;381;48.770;9.188;2023-06-26T13:34:13;6.97;;;6.00;;
795;SDS011;381;48.770;9.188;2023-06-26T13:39:23;5.90;;;5.30;;
795;SDS011;381;48.770;9.188;2023-06-26T13:44:26;6.20;;;5.70;;
795;SDS011;381;48.770;9.188;2023-06-26T13:49:28;6.70;;;5.47;;
795;SDS011;381;48.770;9.188;2023-06-26T13:54:31;6.33;;;5.40;;
795;SDS011;381;48.770;9.188;2023-06-26T13:59:33;5.13;;;4.73;;
795;SDS011;381;48.770;9.188;2023-06-26T14:04:38;5.70;;;5.20;;
795;SDS011;381;48.770;9.188;2023-06-26T14:09:41;5.33;;;4.83;;
795;SDS011;381;48.770;9.188;2023-06-26T14:14:43;4.90;;;4.60;;
795;SDS011;381;48.770;9.188;2023-06-26T14:19:46;5.27;;;4.70;;
795;SDS011;381;48.770;9.188;2023-06-26T14:24:49;5.03;;;4.60;;
795;SDS011;381;48.770;9.188;2023-06-26T14:29:51;4.70;;;4.27;;
795;SDS011;381;48.770;9.188;2023-06-26T14:34:53;4.73;;;4.13;;
795;SDS011;381;48.770;9.188;2023-06-26T14:39:57;4.00;;;3.60;;
795;SDS011;381;48.770;9.188;2023-06-26T14:45:00;3.87;;;3.47;;
795;SDS011;381;48.770;9.188;2023-06-26T14:50:02;5.37;;;3.77;;
795;SDS011;381;48.770;9.188;2023-06-26T14:55:07;4.43;;;3.50;;
795;SDS011;381;48.770;9.188;2023-06-26T15:00:09;3.80;;;3.50;;
795;SDS011;381;48.770;9.188;2023-06-26T15:05:12;4.27;;;3.87;;
795;SDS011;381;48.770;9.188;2023-06-26T15:10:16;4.60;;;4.10;;
795;SDS011;381;48.770;9.188;2023-06-26T15:15:18;3.87;;;3.50;;
795;SDS011;381;48.770;9.188;2023-06-26T15:20:21;4.80;;;4.10;;
795;SDS011;381;48.770;9.188;2023-06-26T15:25:24;4.63;;;4.23;;
795;SDS011;381;48.770;9.188;2023-06-26T15:30:28;7.60;;;4.30;;
795;SDS011;381;48.770;9.188;2023-06-26T15:35:30;4.90;;;4.40;;
795;SDS011;381;48.770;9.188;2023-06-26T15:40:34;3.93;;;3.73;;
795;SDS011;381;48.770;9.188;2023-06-26T15:45:36;4.83;;;4.33;;
795;SDS011;381;48.770;9.188;2023-06-26T15:50:38;5.07;;;4.63;;
795;SDS011;381;48.770;9.188;2023-06-26T15:55:41;6.50;;;5.37;;
795;SDS011;381;48.770;9.188;2023-06-26T16:00:43;5.63;;;5.00;;
795;SDS011;381;48.770;9.188;2023-06-26T16:05:46;9.50;;;6.30;;
795;SDS011;381;48.770;9.188;2023-06-26T16:10:49;6.60;;;6.00;;
795;SDS011;381;48.770;9.188;2023-06-26T16:15:51;6.80;;;6.10;;
795;SDS011;381;48.770;9.188;2023-06-26T16:20:53;6.60;;;5.80;;
795;SDS011;381;48.770;9.188;2023-06-26T16:25:57;7.20;;;6.57;;
795;SDS011;381;48.770;9.188;2023-06-26T16:30:59;9.10;;;6.70;;
795;SDS011;381;48.770;9.188;2023-06-26T16:36:01;7.00;;;6.33;;
795;SDS011;381;48.770;9.188;2023-06-26T16:41:05;6.80;;;6.10;;
795;SDS011;381;48.770;9.188;2023-06-26T16:46:07;5.80;;;5.30;;
795;SDS011;381;48.770;9.188;2023-06-26T16:57:17;8.70;;;5.37;;
795;SDS011;381;48.770;9.188;2023-06-26T17:03:23;3.40;;;3.10;;
795;SDS011;381;48.770;9.188;2023-06-26T17:14:57;4.00;;;3.03;;
795;SDS011;381;48.770;9.188;2023-06-26T17:20:11;2.93;;;2.73;;
795;SDS011;381;48.770;9.188;2023-06-26T17:25:20;3.00;;;2.80;;
795;SDS011;381;48.770;9.188;2023-06-26T17:37:01;6.50;;;3.50;;
795;SDS011;381;48.770;9.188;2023-06-26T17:42:52;2.73;;;2.53;;
795;SDS011;381;48.770;9.188;2023-06-26T18:40:31;2.40;;;2.30;;
795;SDS011;381;48.770;9.188;2023-06-26T19:48:55;5.97;;;2.60;;
795;SDS011;381;48.770;9.188;2023-06-26T19:55:03;3.70;;;2.50;;
795;SDS011;381;48.770;9.188;2023-06-26T20:32:58;4.37;;;2.27;;
795;SDS011;381;48.770;9.188;2023-06-26T20:41:35;3.20;;;2.50;;
795;SDS011;381;48.770;9.188;2023-06-26T22:51:46;2.93;;;2.53;;
795;SDS011;381;48.770;9.188;2023-06-26T22:56:48;3.23;;;2.50;;
795;SDS011;381;48.770;9.188;2023-06-26T23:01:50;5.00;;;2.13;;
795;SDS011;381;48.770;9.188;2023-06-26T23:06:54;3.73;;;2.30;;
795;SDS011;381;48.770;9.188;2023-06-26T23:11:57;2.50;;;2.37;;
795;SDS011;381;48.770;9.188;2023-06-26T23:16:59;4.17;;;2.80;;
795;SDS011;381;48.770;9.188;2023-06-26T23:22:06;5.73;;;2.67;;
795;SDS011;381;48.770;9.188;2023-06-26T23:27:09;2.23;;;2.13;;
795;SDS011;381;48.770;9.188;2023-06-26T23:32:11;4.90;;;2.50;;
795;SDS011;381;48.770;9.188;2023-06-26T23:37:15;6.40;;;2.37;;
795;SDS011;381;48.770;9.188;2023-06-26T23:42:25;2.17;;;2.00;;
795;SDS011;381;48.770;9.188;2023-06-26T23:47:27;2.57;;;2.37;;
795;SDS011;381;48.770;9.188;2023-06-26T23:52:31;4.30;;;2.17;;
795;SDS011;381;48.770;9.188;2023-06-26T23:57:34;2.53;;;2.17;;
